sensor_id;sensor_type;location;lat;lon;timestamp;P1;durP1;ratioP1;P2;durP2;ratioP2
12871;SDS011;6504;53.766;9.626;2023-04-25T00:01:48;16.00;;;4.67;;
12871;SDS011;6504;53.766;9.626;2023-04-25T00:04:17;11.27;;;4.20;;
12871;SDS011;6504;53.766;9.626;2023-04-25T00:06:45;13.80;;;4.20;;
12871;SDS011;6504;53.766;9.626;2023-04-25T00:09:13;11.90;;;3.57;;
12871;SDS011;6504;53.766;9.626;2023-04-25T00:11:42;13.90;;;4.33;;
12871;SDS011;6504;53.766;9.626;2023-04-25T00:14:10;11.47;;;4.40;;
12871;SDS011;6504;53.766;9.626;2023-04-25T00:16:39;18.70;;;4.67;;
12871;SDS011;6504;53.766;9.626;2023-04-25T00:19:10;16.93;;;5.40;;
12871;SDS011;6504;53.766;9.626;2023-04-25T00:21:39;14.37;;;4.73;;
12871;SDS011;6504;53.766;9.626;2023-04-25T00:24:07;13.03;;;4.77;;
12871;SDS011;6504;53.766;9.626;2023-04-25T00:26:35;12.57;;;4.40;;
12871;SDS011;6504;53.766;9.626;2023-04-25T00:29:03;14.80;;;4.40;;
12871;SDS011;6504;53.766;9.626;2023-04-25T00:31:31;15.33;;;4.43;;
12871;SDS011;6504;53.766;9.626;2023-04-25T00:34:01;12.40;;;4.67;;
12871;SDS011;6504;53.766;9.626;2023-04-25T00:36:29;16.23;;;4.83;;
12871;SDS011;6504;53.766;9.626;2023-04-25T00:38:57;12.87;;;4.47;;
12871;SDS011;6504;53.766;9.626;2023-04-25T00:41:26;16.63;;;5.23;;
12871;SDS011;6504;53.766;9.626;2023-04-25T00:43:56;14.87;;;5.67;;
12871;SDS011;6504;53.766;9.626;2023-04-25T00:46:25;16.63;;;5.60;;
12871;SDS011;6504;53.766;9.626;2023-04-25T00:48:53;16.93;;;5.47;;
12871;SDS011;6504;53.766;9.626;2023-04-25T00:51:22;17.30;;;5.20;;
12871;SDS011;6504;53.766;9.626;2023-04-25T00:53:51;15.80;;;5.07;;
12871;SDS011;6504;53.766;9.626;2023-04-25T00:56:20;19.73;;;5.00;;
12871;SDS011;6504;53.766;9.626;2023-04-25T00:58:48;13.70;;;5.63;;
12871;SDS011;6504;53.766;9.626;2023-04-25T01:01:17;14.60;;;5.00;;
12871;SDS011;6504;53.766;9.626;2023-04-25T01:03:45;17.70;;;5.73;;
12871;SDS011;6504;53.766;9.626;2023-04-25T01:06:17;14.63;;;5.40;;
12871;SDS011;6504;53.766;9.626;2023-04-25T01:08:46;15.67;;;5.77;;
12871;SDS011;6504;53.766;9.626;2023-04-25T01:11:14;14.13;;;5.37;;
12871;SDS011;6504;53.766;9.626;2023-04-25T01:13:43;13.63;;;4.30;;
12871;SDS011;6504;53.766;9.626;2023-04-25T01:16:11;13.03;;;4.80;;
12871;SDS011;6504;53.766;9.626;2023-04-25T01:18:39;13.60;;;4.70;;
12871;SDS011;6504;53.766;9.626;2023-04-25T01:21:10;18.93;;;5.20;;
12871;SDS011;6504;53.766;9.626;2023-04-25T01:23:40;12.80;;;4.60;;
12871;SDS011;6504;53.766;9.626;2023-04-25T01:26:09;15.27;;;4.37;;
12871;SDS011;6504;53.766;9.626;2023-04-25T01:28:38;14.17;;;4.43;;
12871;SDS011;6504;53.766;9.626;2023-04-25T01:31:08;13.27;;;4.67;;
12871;SDS011;6504;53.766;9.626;2023-04-25T01:33:36;14.17;;;4.13;;
12871;SDS011;6504;53.766;9.626;2023-04-25T01:36:05;12.40;;;4.80;;
12871;SDS011;6504;53.766;9.626;2023-04-25T01:38:35;14.70;;;5.00;;
12871;SDS011;6504;53.766;9.626;2023-04-25T01:41:03;15.80;;;4.70;;
12871;SDS011;6504;53.766;9.626;2023-04-25T01:43:32;14.00;;;4.40;;
12871;SDS011;6504;53.766;9.626;2023-04-25T01:46:00;15.30;;;4.70;;
12871;SDS011;6504;53.766;9.626;2023-04-25T01:48:28;13.93;;;4.37;;
12871;SDS011;6504;53.766;9.626;2023-04-25T01:50:56;17.80;;;4.47;;
12871;SDS011;6504;53.766;9.626;2023-04-25T01:53:25;16.30;;;4.20;;
12871;SDS011;6504;53.766;9.626;2023-04-25T01:55:54;16.23;;;4.47;;
12871;SDS011;6504;53.766;9.626;2023-04-25T01:58:22;12.40;;;3.77;;
12871;SDS011;6504;53.766;9.626;2023-04-25T02:00:50;12.63;;;4.37;;
12871;SDS011;6504;53.766;9.626;2023-04-25T02:03:18;11.70;;;4.57;;
12871;SDS011;6504;53.766;9.626;2023-04-25T02:05:46;14.50;;;3.83;;
12871;SDS011;6504;53.766;9.626;2023-04-25T02:08:15;14.10;;;4.47;;
12871;SDS011;6504;53.766;9.626;2023-04-25T02:10:44;11.40;;;4.33;;
12871;SDS011;6504;53.766;9.626;2023-04-25T02:13:13;18.70;;;4.47;;
12871;SDS011;6504;53.766;9.626;2023-04-25T02:15:41;14.47;;;4.23;;
12871;SDS011;6504;53.766;9.626;2023-04-25T02:18:10;10.57;;;4.67;;
12871;SDS011;6504;53.766;9.626;2023-04-25T02:20:38;12.97;;;5.17;;
12871;SDS011;6504;53.766;9.626;2023-04-25T02:23:06;12.93;;;4.30;;
12871;SDS011;6504;53.766;9.626;2023-04-25T02:25:34;15.77;;;4.60;;
12871;SDS011;6504;53.766;9.626;2023-04-25T02:28:02;13.57;;;4.87;;
12871;SDS011;6504;53.766;9.626;2023-04-25T02:30:31;17.23;;;4.47;;
12871;SDS011;6504;53.766;9.626;2023-04-25T02:33:00;12.17;;;4.37;;
12871;SDS011;6504;53.766;9.626;2023-04-25T02:35:28;15.40;;;4.77;;
12871;SDS011;6504;53.766;9.626;2023-04-25T02:37:56;9.80;;;3.73;;
12871;SDS011;6504;53.766;9.626;2023-04-25T02:40:24;13.03;;;5.20;;
12871;SDS011;6504;53.766;9.626;2023-04-25T02:42:52;12.97;;;4.53;;
12871;SDS011;6504;53.766;9.626;2023-04-25T02:45:20;12.87;;;4.03;;
12871;SDS011;6504;53.766;9.626;2023-04-25T02:47:50;14.50;;;4.47;;
12871;SDS011;6504;53.766;9.626;2023-04-25T02:50:18;12.27;;;3.87;;
12871;SDS011;6504;53.766;9.626;2023-04-25T02:52:46;8.03;;;4.00;;
12871;SDS011;6504;53.766;9.626;2023-04-25T02:55:14;15.77;;;4.20;;
12871;SDS011;6504;53.766;9.626;2023-04-25T02:57:42;12.80;;;4.07;;
12871;SDS011;6504;53.766;9.626;2023-04-25T03:00:11;13.47;;;3.93;;
12871;SDS011;6504;53.766;9.626;2023-04-25T03:02:40;10.57;;;4.57;;
12871;SDS011;6504;53.766;9.626;2023-04-25T03:05:11;12.43;;;4.00;;
12871;SDS011;6504;53.766;9.626;2023-04-25T03:07:41;14.60;;;4.03;;
12871;SDS011;6504;53.766;9.626;2023-04-25T03:10:10;11.47;;;4.03;;
12871;SDS011;6504;53.766;9.626;2023-04-25T03:12:38;8.87;;;3.30;;
12871;SDS011;6504;53.766;9.626;2023-04-25T03:15:07;12.17;;;3.40;;
12871;SDS011;6504;53.766;9.626;2023-04-25T03:17:35;9.00;;;3.70;;
12871;SDS011;6504;53.766;9.626;2023-04-25T03:20:03;12.73;;;4.03;;
12871;SDS011;6504;53.766;9.626;2023-04-25T03:22:35;15.80;;;4.00;;
12871;SDS011;6504;53.766;9.626;2023-04-25T03:25:04;13.13;;;4.23;;
12871;SDS011;6504;53.766;9.626;2023-04-25T03:27:33;10.80;;;3.13;;
12871;SDS011;6504;53.766;9.626;2023-04-25T03:30:01;10.13;;;3.60;;
12871;SDS011;6504;53.766;9.626;2023-04-25T03:32:30;11.73;;;3.80;;
12871;SDS011;6504;53.766;9.626;2023-04-25T03:34:58;9.90;;;3.23;;
12871;SDS011;6504;53.766;9.626;2023-04-25T03:37:26;9.23;;;3.60;;
12871;SDS011;6504;53.766;9.626;2023-04-25T03:39:55;9.20;;;3.80;;
12871;SDS011;6504;53.766;9.626;2023-04-25T03:42:23;9.20;;;3.87;;
12871;SDS011;6504;53.766;9.626;2023-04-25T03:44:51;9.90;;;3.33;;
12871;SDS011;6504;53.766;9.626;2023-04-25T03:47:19;8.90;;;3.80;;
12871;SDS011;6504;53.766;9.626;2023-04-25T03:49:48;12.90;;;3.60;;
12871;SDS011;6504;53.766;9.626;2023-04-25T03:52:18;8.30;;;3.63;;
12871;SDS011;6504;53.766;9.626;2023-04-25T03:54:46;12.37;;;3.30;;
12871;SDS011;6504;53.766;9.626;2023-04-25T03:57:15;9.43;;;3.47;;
12871;SDS011;6504;53.766;9.626;2023-04-25T03:59:43;12.40;;;3.80;;
12871;SDS011;6504;53.766;9.626;2023-04-25T04:02:11;9.53;;;3.27;;
12871;SDS011;6504;53.766;9.626;2023-04-25T04:04:39;13.03;;;3.60;;
12871;SDS011;6504;53.766;9.626;2023-04-25T04:07:10;10.33;;;4.00;;
12871;SDS011;6504;53.766;9.626;2023-04-25T04:09:38;6.07;;;2.80;;
12871;SDS011;6504;53.766;9.626;2023-04-25T04:12:06;12.73;;;3.83;;
12871;SDS011;6504;53.766;9.626;2023-04-25T04:14:36;9.40;;;3.30;;
12871;SDS011;6504;53.766;9.626;2023-04-25T04:17:04;10.53;;;3.20;;
12871;SDS011;6504;53.766;9.626;2023-04-25T04:19:32;10.57;;;3.50;;
12871;SDS011;6504;53.766;9.626;2023-04-25T04:22:00;12.23;;;4.07;;
12871;SDS011;6504;53.766;9.626;2023-04-25T04:24:28;10.23;;;3.23;;
12871;SDS011;6504;53.766;9.626;2023-04-25T04:26:56;9.80;;;3.33;;
12871;SDS011;6504;53.766;9.626;2023-04-25T04:29:25;8.37;;;3.70;;
12871;SDS011;6504;53.766;9.626;2023-04-25T04:31:54;12.37;;;3.60;;
12871;SDS011;6504;53.766;9.626;2023-04-25T04:34:23;9.27;;;3.00;;
12871;SDS011;6504;53.766;9.626;2023-04-25T04:36:52;10.03;;;3.27;;
12871;SDS011;6504;53.766;9.626;2023-04-25T04:39:20;12.53;;;3.80;;
12871;SDS011;6504;53.766;9.626;2023-04-25T04:41:48;13.70;;;4.50;;
12871;SDS011;6504;53.766;9.626;2023-04-25T04:44:17;12.77;;;4.63;;
12871;SDS011;6504;53.766;9.626;2023-04-25T04:46:45;12.43;;;3.37;;
12871;SDS011;6504;53.766;9.626;2023-04-25T04:49:14;9.57;;;3.40;;
12871;SDS011;6504;53.766;9.626;2023-04-25T04:51:43;13.40;;;3.47;;
12871;SDS011;6504;53.766;9.626;2023-04-25T04:54:12;8.77;;;2.93;;
12871;SDS011;6504;53.766;9.626;2023-04-25T04:56:40;6.93;;;2.87;;
12871;SDS011;6504;53.766;9.626;2023-04-25T04:59:08;9.67;;;2.97;;
12871;SDS011;6504;53.766;9.626;2023-04-25T05:01:37;6.20;;;3.10;;
12871;SDS011;6504;53.766;9.626;2023-04-25T05:04:05;6.70;;;2.47;;
12871;SDS011;6504;53.766;9.626;2023-04-25T05:06:35;9.00;;;3.17;;
12871;SDS011;6504;53.766;9.626;2023-04-25T05:09:03;6.73;;;2.63;;
12871;SDS011;6504;53.766;9.626;2023-04-25T05:11:32;7.17;;;2.93;;
12871;SDS011;6504;53.766;9.626;2023-04-25T05:14:00;12.03;;;3.40;;
12871;SDS011;6504;53.766;9.626;2023-04-25T05:16:28;7.73;;;2.67;;
12871;SDS011;6504;53.766;9.626;2023-04-25T05:18:56;11.03;;;3.63;;
12871;SDS011;6504;53.766;9.626;2023-04-25T05:21:24;9.60;;;3.13;;
12871;SDS011;6504;53.766;9.626;2023-04-25T05:23:54;7.13;;;2.87;;
12871;SDS011;6504;53.766;9.626;2023-04-25T05:26:22;8.93;;;2.73;;
12871;SDS011;6504;53.766;9.626;2023-04-25T05:28:51;8.63;;;3.60;;
12871;SDS011;6504;53.766;9.626;2023-04-25T05:31:19;7.23;;;2.73;;
12871;SDS011;6504;53.766;9.626;2023-04-25T05:33:48;8.03;;;2.80;;
12871;SDS011;6504;53.766;9.626;2023-04-25T05:36:18;6.93;;;2.70;;
12871;SDS011;6504;53.766;9.626;2023-04-25T05:38:46;7.67;;;2.73;;
12871;SDS011;6504;53.766;9.626;2023-04-25T05:41:15;7.10;;;3.03;;
12871;SDS011;6504;53.766;9.626;2023-04-25T05:43:43;6.37;;;2.70;;
12871;SDS011;6504;53.766;9.626;2023-04-25T05:46:15;12.33;;;3.23;;
12871;SDS011;6504;53.766;9.626;2023-04-25T05:48:44;8.10;;;2.60;;
12871;SDS011;6504;53.766;9.626;2023-04-25T05:51:12;6.70;;;2.33;;
12871;SDS011;6504;53.766;9.626;2023-04-25T05:53:40;9.33;;;3.03;;
12871;SDS011;6504;53.766;9.626;2023-04-25T05:56:08;7.27;;;2.67;;
12871;SDS011;6504;53.766;9.626;2023-04-25T05:58:38;8.93;;;3.80;;
12871;SDS011;6504;53.766;9.626;2023-04-25T06:01:06;13.93;;;3.20;;
12871;SDS011;6504;53.766;9.626;2023-04-25T06:03:35;11.43;;;3.70;;
12871;SDS011;6504;53.766;9.626;2023-04-25T06:06:04;7.87;;;3.77;;
12871;SDS011;6504;53.766;9.626;2023-04-25T06:08:33;10.40;;;3.40;;
12871;SDS011;6504;53.766;9.626;2023-04-25T06:11:01;10.97;;;3.50;;
12871;SDS011;6504;53.766;9.626;2023-04-25T06:13:29;11.67;;;3.40;;
12871;SDS011;6504;53.766;9.626;2023-04-25T06:15:58;11.83;;;3.93;;
12871;SDS011;6504;53.766;9.626;2023-04-25T06:18:26;9.30;;;3.50;;
12871;SDS011;6504;53.766;9.626;2023-04-25T06:20:54;10.50;;;4.30;;
12871;SDS011;6504;53.766;9.626;2023-04-25T06:23:22;12.30;;;4.37;;
12871;SDS011;6504;53.766;9.626;2023-04-25T06:25:50;11.77;;;4.03;;
12871;SDS011;6504;53.766;9.626;2023-04-25T06:28:19;11.10;;;3.93;;
12871;SDS011;6504;53.766;9.626;2023-04-25T06:30:48;8.43;;;2.60;;
12871;SDS011;6504;53.766;9.626;2023-04-25T06:33:17;11.87;;;3.80;;
12871;SDS011;6504;53.766;9.626;2023-04-25T06:35:46;9.33;;;2.80;;
12871;SDS011;6504;53.766;9.626;2023-04-25T06:38:15;9.30;;;3.03;;
12871;SDS011;6504;53.766;9.626;2023-04-25T06:40:43;5.30;;;2.60;;
12871;SDS011;6504;53.766;9.626;2023-04-25T06:43:11;8.10;;;2.57;;
12871;SDS011;6504;53.766;9.626;2023-04-25T06:45:39;5.40;;;2.33;;
12871;SDS011;6504;53.766;9.626;2023-04-25T06:48:08;7.40;;;2.40;;
12871;SDS011;6504;53.766;9.626;2023-04-25T06:50:38;8.73;;;2.80;;
12871;SDS011;6504;53.766;9.626;2023-04-25T06:53:06;8.07;;;2.70;;
12871;SDS011;6504;53.766;9.626;2023-04-25T06:55:35;11.00;;;3.03;;
12871;SDS011;6504;53.766;9.626;2023-04-25T06:58:03;8.53;;;3.73;;
12871;SDS011;6504;53.766;9.626;2023-04-25T07:00:31;12.30;;;3.13;;
12871;SDS011;6504;53.766;9.626;2023-04-25T07:02:59;8.03;;;3.00;;
12871;SDS011;6504;53.766;9.626;2023-04-25T07:05:28;9.03;;;2.63;;
12871;SDS011;6504;53.766;9.626;2023-04-25T07:07:58;7.70;;;2.53;;
12871;SDS011;6504;53.766;9.626;2023-04-25T07:10:26;9.77;;;2.90;;
12871;SDS011;6504;53.766;9.626;2023-04-25T07:12:54;8.10;;;3.17;;
12871;SDS011;6504;53.766;9.626;2023-04-25T07:15:23;11.30;;;2.80;;
12871;SDS011;6504;53.766;9.626;2023-04-25T07:17:51;10.07;;;3.20;;
12871;SDS011;6504;53.766;9.626;2023-04-25T07:20:19;8.20;;;2.73;;
12871;SDS011;6504;53.766;9.626;2023-04-25T07:22:47;8.57;;;3.10;;
12871;SDS011;6504;53.766;9.626;2023-04-25T07:25:17;11.83;;;4.00;;
12871;SDS011;6504;53.766;9.626;2023-04-25T07:27:45;12.13;;;3.10;;
12871;SDS011;6504;53.766;9.626;2023-04-25T07:30:14;11.53;;;3.70;;
12871;SDS011;6504;53.766;9.626;2023-04-25T07:32:42;9.83;;;3.00;;
12871;SDS011;6504;53.766;9.626;2023-04-25T07:35:10;8.97;;;2.90;;
12871;SDS011;6504;53.766;9.626;2023-04-25T07:37:38;14.47;;;3.37;;
12871;SDS011;6504;53.766;9.626;2023-04-25T07:40:06;10.63;;;3.00;;
12871;SDS011;6504;53.766;9.626;2023-04-25T07:42:37;9.10;;;3.00;;
12871;SDS011;6504;53.766;9.626;2023-04-25T07:45:06;10.10;;;3.00;;
12871;SDS011;6504;53.766;9.626;2023-04-25T07:47:35;7.63;;;2.87;;
12871;SDS011;6504;53.766;9.626;2023-04-25T07:50:05;8.33;;;2.40;;
12871;SDS011;6504;53.766;9.626;2023-04-25T07:52:33;8.50;;;2.90;;
12871;SDS011;6504;53.766;9.626;2023-04-25T07:55:02;9.80;;;3.10;;
12871;SDS011;6504;53.766;9.626;2023-04-25T07:57:30;10.03;;;2.53;;
12871;SDS011;6504;53.766;9.626;2023-04-25T08:00:00;8.40;;;2.70;;
12871;SDS011;6504;53.766;9.626;2023-04-25T08:02:28;10.93;;;3.30;;
12871;SDS011;6504;53.766;9.626;2023-04-25T08:04:56;10.87;;;3.10;;
12871;SDS011;6504;53.766;9.626;2023-04-25T08:07:24;8.10;;;3.13;;
12871;SDS011;6504;53.766;9.626;2023-04-25T08:09:53;10.17;;;3.00;;
12871;SDS011;6504;53.766;9.626;2023-04-25T08:12:21;10.40;;;3.00;;
12871;SDS011;6504;53.766;9.626;2023-04-25T08:14:49;7.40;;;2.73;;
12871;SDS011;6504;53.766;9.626;2023-04-25T08:17:19;11.73;;;2.80;;
12871;SDS011;6504;53.766;9.626;2023-04-25T08:19:47;8.00;;;2.80;;
12871;SDS011;6504;53.766;9.626;2023-04-25T08:22:16;10.23;;;2.80;;
12871;SDS011;6504;53.766;9.626;2023-04-25T08:24:44;10.23;;;2.97;;
12871;SDS011;6504;53.766;9.626;2023-04-25T08:27:12;9.37;;;2.57;;
12871;SDS011;6504;53.766;9.626;2023-04-25T08:29:40;8.30;;;2.77;;
12871;SDS011;6504;53.766;9.626;2023-04-25T08:32:09;9.43;;;2.27;;
12871;SDS011;6504;53.766;9.626;2023-04-25T08:34:38;6.30;;;2.40;;
12871;SDS011;6504;53.766;9.626;2023-04-25T08:37:08;6.30;;;2.23;;
12871;SDS011;6504;53.766;9.626;2023-04-25T08:39:37;6.60;;;2.07;;
12871;SDS011;6504;53.766;9.626;2023-04-25T08:42:06;8.17;;;2.30;;
12871;SDS011;6504;53.766;9.626;2023-04-25T08:44:34;10.90;;;2.57;;
12871;SDS011;6504;53.766;9.626;2023-04-25T08:47:03;8.50;;;2.60;;
12871;SDS011;6504;53.766;9.626;2023-04-25T08:49:32;9.33;;;2.80;;
12871;SDS011;6504;53.766;9.626;2023-04-25T08:52:03;6.53;;;2.57;;
12871;SDS011;6504;53.766;9.626;2023-04-25T08:54:33;6.10;;;2.00;;
12871;SDS011;6504;53.766;9.626;2023-04-25T08:57:04;9.43;;;3.13;;
12871;SDS011;6504;53.766;9.626;2023-04-25T08:59:33;10.03;;;2.40;;
12871;SDS011;6504;53.766;9.626;2023-04-25T09:02:04;10.33;;;2.73;;
12871;SDS011;6504;53.766;9.626;2023-04-25T09:04:33;9.73;;;2.77;;
12871;SDS011;6504;53.766;9.626;2023-04-25T09:07:02;6.20;;;2.40;;
12871;SDS011;6504;53.766;9.626;2023-04-25T09:09:31;7.60;;;2.40;;
12871;SDS011;6504;53.766;9.626;2023-04-25T09:11:59;5.03;;;1.80;;
12871;SDS011;6504;53.766;9.626;2023-04-25T09:14:28;6.77;;;1.97;;
12871;SDS011;6504;53.766;9.626;2023-04-25T09:17:00;7.90;;;2.10;;
12871;SDS011;6504;53.766;9.626;2023-04-25T09:19:29;5.23;;;2.17;;
12871;SDS011;6504;53.766;9.626;2023-04-25T09:22:08;6.87;;;1.73;;
12871;SDS011;6504;53.766;9.626;2023-04-25T09:24:36;4.60;;;1.93;;
12871;SDS011;6504;53.766;9.626;2023-04-25T09:27:07;7.13;;;2.20;;
12871;SDS011;6504;53.766;9.626;2023-04-25T09:29:37;10.80;;;3.70;;
12871;SDS011;6504;53.766;9.626;2023-04-25T09:32:17;7.83;;;2.63;;
12871;SDS011;6504;53.766;9.626;2023-04-25T09:34:57;6.03;;;2.10;;
12871;SDS011;6504;53.766;9.626;2023-04-25T09:37:27;8.13;;;1.70;;
12871;SDS011;6504;53.766;9.626;2023-04-25T09:39:58;4.77;;;1.60;;
12871;SDS011;6504;53.766;9.626;2023-04-25T09:42:29;4.30;;;1.53;;
12871;SDS011;6504;53.766;9.626;2023-04-25T09:44:58;5.97;;;1.97;;
12871;SDS011;6504;53.766;9.626;2023-04-25T09:47:28;6.23;;;1.87;;
12871;SDS011;6504;53.766;9.626;2023-04-25T09:49:56;8.20;;;2.17;;
12871;SDS011;6504;53.766;9.626;2023-04-25T09:52:24;7.90;;;2.17;;
12871;SDS011;6504;53.766;9.626;2023-04-25T09:54:54;8.37;;;2.20;;
12871;SDS011;6504;53.766;9.626;2023-04-25T09:57:23;7.77;;;2.60;;
12871;SDS011;6504;53.766;9.626;2023-04-25T09:59:52;7.97;;;2.00;;
12871;SDS011;6504;53.766;9.626;2023-04-25T10:02:22;7.27;;;1.80;;
12871;SDS011;6504;53.766;9.626;2023-04-25T10:04:52;8.93;;;2.27;;
12871;SDS011;6504;53.766;9.626;2023-04-25T10:07:22;5.77;;;2.10;;
12871;SDS011;6504;53.766;9.626;2023-04-25T10:09:54;8.10;;;2.30;;
12871;SDS011;6504;53.766;9.626;2023-04-25T10:12:26;4.73;;;2.20;;
12871;SDS011;6504;53.766;9.626;2023-04-25T10:14:54;8.47;;;2.03;;
12871;SDS011;6504;53.766;9.626;2023-04-25T10:17:24;6.53;;;2.10;;
12871;SDS011;6504;53.766;9.626;2023-04-25T10:19:54;6.37;;;2.10;;
12871;SDS011;6504;53.766;9.626;2023-04-25T10:22:30;7.50;;;2.50;;
12871;SDS011;6504;53.766;9.626;2023-04-25T10:25:03;9.50;;;2.30;;
12871;SDS011;6504;53.766;9.626;2023-04-25T10:27:34;8.87;;;2.47;;
12871;SDS011;6504;53.766;9.626;2023-04-25T10:30:04;7.53;;;2.40;;
12871;SDS011;6504;53.766;9.626;2023-04-25T10:32:37;8.33;;;2.83;;
12871;SDS011;6504;53.766;9.626;2023-04-25T10:35:12;8.93;;;2.33;;
12871;SDS011;6504;53.766;9.626;2023-04-25T10:40:26;5.17;;;1.60;;
12871;SDS011;6504;53.766;9.626;2023-04-25T10:42:55;4.27;;;1.60;;
12871;SDS011;6504;53.766;9.626;2023-04-25T10:45:52;4.73;;;1.33;;
12871;SDS011;6504;53.766;9.626;2023-04-25T10:48:27;5.00;;;1.40;;
12871;SDS011;6504;53.766;9.626;2023-04-25T10:51:06;3.47;;;1.20;;
12871;SDS011;6504;53.766;9.626;2023-04-25T10:53:35;7.77;;;2.10;;
12871;SDS011;6504;53.766;9.626;2023-04-25T10:56:10;8.60;;;1.90;;
12871;SDS011;6504;53.766;9.626;2023-04-25T10:58:42;8.97;;;2.50;;
12871;SDS011;6504;53.766;9.626;2023-04-25T11:01:11;7.83;;;2.43;;
12871;SDS011;6504;53.766;9.626;2023-04-25T11:03:41;7.37;;;2.07;;
12871;SDS011;6504;53.766;9.626;2023-04-25T11:06:15;7.23;;;2.00;;
12871;SDS011;6504;53.766;9.626;2023-04-25T11:08:50;8.53;;;2.03;;
12871;SDS011;6504;53.766;9.626;2023-04-25T11:11:20;4.20;;;1.63;;
12871;SDS011;6504;53.766;9.626;2023-04-25T11:13:48;7.93;;;1.90;;
12871;SDS011;6504;53.766;9.626;2023-04-25T11:16:17;6.83;;;1.97;;
12871;SDS011;6504;53.766;9.626;2023-04-25T11:18:53;6.57;;;1.80;;
12871;SDS011;6504;53.766;9.626;2023-04-25T11:21:24;5.87;;;1.90;;
12871;SDS011;6504;53.766;9.626;2023-04-25T11:23:54;7.87;;;2.10;;
12871;SDS011;6504;53.766;9.626;2023-04-25T11:26:25;6.53;;;1.73;;
12871;SDS011;6504;53.766;9.626;2023-04-25T11:28:56;8.67;;;2.00;;
12871;SDS011;6504;53.766;9.626;2023-04-25T11:31:25;8.83;;;2.17;;
12871;SDS011;6504;53.766;9.626;2023-04-25T11:33:54;5.60;;;1.77;;
12871;SDS011;6504;53.766;9.626;2023-04-25T11:36:23;4.70;;;1.80;;
12871;SDS011;6504;53.766;9.626;2023-04-25T11:38:53;6.97;;;2.27;;
12871;SDS011;6504;53.766;9.626;2023-04-25T11:41:21;5.77;;;1.60;;
12871;SDS011;6504;53.766;9.626;2023-04-25T11:43:52;6.00;;;1.70;;
12871;SDS011;6504;53.766;9.626;2023-04-25T11:46:21;7.17;;;2.23;;
12871;SDS011;6504;53.766;9.626;2023-04-25T11:48:49;7.13;;;2.20;;
12871;SDS011;6504;53.766;9.626;2023-04-25T11:51:18;9.37;;;2.60;;
12871;SDS011;6504;53.766;9.626;2023-04-25T11:53:46;7.67;;;1.90;;
12871;SDS011;6504;53.766;9.626;2023-04-25T11:56:14;5.73;;;1.90;;
12871;SDS011;6504;53.766;9.626;2023-04-25T11:58:57;5.10;;;2.03;;
12871;SDS011;6504;53.766;9.626;2023-04-25T12:01:27;6.63;;;1.50;;
12871;SDS011;6504;53.766;9.626;2023-04-25T12:04:09;5.10;;;2.20;;
12871;SDS011;6504;53.766;9.626;2023-04-25T12:06:39;5.17;;;1.50;;
12871;SDS011;6504;53.766;9.626;2023-04-25T12:09:09;8.47;;;1.77;;
12871;SDS011;6504;53.766;9.626;2023-04-25T12:11:42;4.43;;;1.67;;
12871;SDS011;6504;53.766;9.626;2023-04-25T12:14:19;7.23;;;1.80;;
12871;SDS011;6504;53.766;9.626;2023-04-25T12:16:50;8.50;;;2.23;;
12871;SDS011;6504;53.766;9.626;2023-04-25T12:19:19;9.27;;;2.17;;
12871;SDS011;6504;53.766;9.626;2023-04-25T12:21:48;8.17;;;2.60;;
12871;SDS011;6504;53.766;9.626;2023-04-25T12:24:24;5.00;;;1.83;;
12871;SDS011;6504;53.766;9.626;2023-04-25T12:26:58;6.53;;;1.77;;
12871;SDS011;6504;53.766;9.626;2023-04-25T12:29:31;7.90;;;2.23;;
12871;SDS011;6504;53.766;9.626;2023-04-25T12:32:14;6.23;;;1.67;;
12871;SDS011;6504;53.766;9.626;2023-04-25T12:34:43;4.13;;;1.57;;
12871;SDS011;6504;53.766;9.626;2023-04-25T12:37:11;6.97;;;1.83;;
12871;SDS011;6504;53.766;9.626;2023-04-25T12:39:39;8.60;;;2.20;;
12871;SDS011;6504;53.766;9.626;2023-04-25T12:42:07;6.27;;;2.03;;
12871;SDS011;6504;53.766;9.626;2023-04-25T12:44:39;6.63;;;2.40;;
12871;SDS011;6504;53.766;9.626;2023-04-25T12:47:08;8.53;;;2.60;;
12871;SDS011;6504;53.766;9.626;2023-04-25T12:49:36;5.77;;;2.00;;
12871;SDS011;6504;53.766;9.626;2023-04-25T12:52:04;8.50;;;2.20;;
12871;SDS011;6504;53.766;9.626;2023-04-25T12:54:32;8.00;;;2.43;;
12871;SDS011;6504;53.766;9.626;2023-04-25T12:57:01;8.47;;;2.57;;
12871;SDS011;6504;53.766;9.626;2023-04-25T12:59:30;8.33;;;2.33;;
12871;SDS011;6504;53.766;9.626;2023-04-25T13:01:59;7.33;;;2.67;;
12871;SDS011;6504;53.766;9.626;2023-04-25T13:04:28;11.37;;;2.17;;
12871;SDS011;6504;53.766;9.626;2023-04-25T13:06:56;8.17;;;2.40;;
12871;SDS011;6504;53.766;9.626;2023-04-25T13:09:24;8.40;;;2.03;;
12871;SDS011;6504;53.766;9.626;2023-04-25T13:11:52;6.67;;;2.50;;
12871;SDS011;6504;53.766;9.626;2023-04-25T13:14:24;7.47;;;2.60;;
12871;SDS011;6504;53.766;9.626;2023-04-25T13:16:52;9.57;;;2.50;;
12871;SDS011;6504;53.766;9.626;2023-04-25T13:19:22;8.63;;;2.50;;
12871;SDS011;6504;53.766;9.626;2023-04-25T13:21:51;5.53;;;2.13;;
12871;SDS011;6504;53.766;9.626;2023-04-25T13:24:20;7.83;;;1.87;;
12871;SDS011;6504;53.766;9.626;2023-04-25T13:26:48;4.77;;;1.67;;
12871;SDS011;6504;53.766;9.626;2023-04-25T13:29:16;8.13;;;1.57;;
12871;SDS011;6504;53.766;9.626;2023-04-25T13:31:44;4.90;;;1.80;;
12871;SDS011;6504;53.766;9.626;2023-04-25T13:34:12;4.80;;;2.03;;
12871;SDS011;6504;53.766;9.626;2023-04-25T13:36:41;4.43;;;1.67;;
12871;SDS011;6504;53.766;9.626;2023-04-25T13:39:10;7.03;;;2.60;;
12871;SDS011;6504;53.766;9.626;2023-04-25T13:41:38;7.43;;;2.17;;
12871;SDS011;6504;53.766;9.626;2023-04-25T13:44:06;7.30;;;2.07;;
12871;SDS011;6504;53.766;9.626;2023-04-25T13:46:34;4.90;;;1.93;;
12871;SDS011;6504;53.766;9.626;2023-04-25T13:49:06;11.53;;;2.00;;
12871;SDS011;6504;53.766;9.626;2023-04-25T13:51:38;4.70;;;1.90;;
12871;SDS011;6504;53.766;9.626;2023-04-25T13:54:08;8.17;;;1.77;;
12871;SDS011;6504;53.766;9.626;2023-04-25T13:56:36;5.80;;;1.60;;
12871;SDS011;6504;53.766;9.626;2023-04-25T13:59:04;7.10;;;2.20;;
12871;SDS011;6504;53.766;9.626;2023-04-25T14:01:32;9.40;;;2.20;;
12871;SDS011;6504;53.766;9.626;2023-04-25T14:04:02;7.13;;;2.63;;
12871;SDS011;6504;53.766;9.626;2023-04-25T14:06:31;6.73;;;2.13;;
12871;SDS011;6504;53.766;9.626;2023-04-25T14:08:59;10.83;;;2.47;;
12871;SDS011;6504;53.766;9.626;2023-04-25T14:11:29;5.73;;;2.00;;
12871;SDS011;6504;53.766;9.626;2023-04-25T14:13:57;7.93;;;2.00;;
12871;SDS011;6504;53.766;9.626;2023-04-25T14:16:25;8.07;;;2.17;;
12871;SDS011;6504;53.766;9.626;2023-04-25T14:18:53;9.53;;;2.50;;
12871;SDS011;6504;53.766;9.626;2023-04-25T14:21:21;5.97;;;2.20;;
12871;SDS011;6504;53.766;9.626;2023-04-25T14:23:49;5.57;;;1.93;;
12871;SDS011;6504;53.766;9.626;2023-04-25T14:26:18;9.07;;;2.20;;
12871;SDS011;6504;53.766;9.626;2023-04-25T14:28:48;7.03;;;2.13;;
12871;SDS011;6504;53.766;9.626;2023-04-25T14:31:16;5.40;;;1.90;;
12871;SDS011;6504;53.766;9.626;2023-04-25T14:33:44;7.57;;;2.10;;
12871;SDS011;6504;53.766;9.626;2023-04-25T14:36:12;6.73;;;1.90;;
12871;SDS011;6504;53.766;9.626;2023-04-25T14:38:40;6.67;;;1.90;;
12871;SDS011;6504;53.766;9.626;2023-04-25T14:41:09;4.93;;;2.00;;
12871;SDS011;6504;53.766;9.626;2023-04-25T14:43:37;4.87;;;1.90;;
12871;SDS011;6504;53.766;9.626;2023-04-25T14:46:07;4.07;;;1.50;;
12871;SDS011;6504;53.766;9.626;2023-04-25T14:48:36;4.10;;;1.37;;
12871;SDS011;6504;53.766;9.626;2023-04-25T14:51:04;5.83;;;1.70;;
12871;SDS011;6504;53.766;9.626;2023-04-25T14:53:32;6.73;;;2.23;;
12871;SDS011;6504;53.766;9.626;2023-04-25T14:56:00;5.57;;;1.63;;
12871;SDS011;6504;53.766;9.626;2023-04-25T14:58:28;7.80;;;2.57;;
12871;SDS011;6504;53.766;9.626;2023-04-25T15:00:57;6.50;;;2.27;;
12871;SDS011;6504;53.766;9.626;2023-04-25T15:03:26;9.07;;;3.27;;
12871;SDS011;6504;53.766;9.626;2023-04-25T15:05:55;8.97;;;2.27;;
12871;SDS011;6504;53.766;9.626;2023-04-25T15:08:23;8.30;;;2.33;;
12871;SDS011;6504;53.766;9.626;2023-04-25T15:10:51;5.23;;;1.87;;